Time;durP1;ratioP1;P1;durP2;ratioP2;P2;SDS_P1;SDS_P2;PMS_P1;PMS_P2;Temp;Humidity;BMP_temperature;BMP_pressure;BME280_temperature;BME280_humidity;BME280_pressure;Samples;Min_cycle;Max_cycle;Signal;HPM_P1;HPM_P2
2023/06/29 00:01:02;;;;;;;5.65;5.07;;;;;;;21.23;64.74;99502.59;5070681;28;20089;-75
2023/06/29 00:03:28;;;;;;;6.20;5.20;;;;;;;21.23;64.81;99513.34;5074027;28;20033;-74
2023/06/29 00:05:57;;;;;;;6.20;5.60;;;;;;;21.02;64.38;99490.75;5072897;28;20024;-74
2023/06/29 00:08:24;;;;;;;7.75;5.97;;;;;;;20.35;64.74;99377.31;5074178;28;20032;-75
2023/06/29 00:10:50;;;;;;;6.28;5.60;;;;;;;21.10;64.94;99508.28;5072845;28;20025;-74
2023/06/29 00:13:16;;;;;;;6.43;5.75;;;;;;;20.82;64.83;99469.00;5074058;28;20025;-75
2023/06/29 00:15:42;;;;;;;7.38;5.85;;;;;;;20.70;65.10;99446.78;5074149;28;20034;-76
2023/06/29 00:18:08;;;;;;;6.40;5.78;;;;;;;20.71;65.21;99448.41;5073960;28;20047;-75
2023/06/29 00:20:35;;;;;;;7.55;6.20;;;;;;;20.95;65.92;99484.75;5072583;28;20082;-75
2023/06/29 00:23:01;;;;;;;7.50;6.60;;;;;;;20.90;65.46;99479.31;5072660;28;20017;-75
2023/06/29 00:25:26;;;;;;;11.10;6.93;;;;;;;20.69;65.54;99445.97;5074034;28;20519;-75
2023/06/29 00:27:52;;;;;;;7.57;6.78;;;;;;;20.65;65.72;99447.50;5073748;28;20016;-75
2023/06/29 00:30:17;;;;;;;7.85;6.38;;;;;;;20.91;65.76;99483.59;5072440;28;20086;-75
2023/06/29 00:32:43;;;;;;;7.53;6.13;;;;;;;20.92;65.52;99480.69;5072383;28;20040;-75
2023/06/29 00:35:08;;;;;;;8.10;6.68;;;;;;;20.59;65.79;99438.59;5073620;28;20048;-75
2023/06/29 00:37:34;;;;;;;6.78;6.15;;;;;;;21.00;65.75;99490.19;5073907;28;20058;-75
2023/06/29 00:39:59;;;;;;;8.95;6.70;;;;;;;20.58;65.55;99447.69;5072263;28;20027;-76
2023/06/29 00:42:24;;;;;;;8.95;7.03;;;;;;;20.78;65.96;99481.25;5073504;28;20025;-75
2023/06/29 00:44:50;;;;;;;8.57;7.00;;;;;;;20.83;66.30;99494.75;5073426;28;20161;-75
2023/06/29 00:47:15;;;;;;;7.22;6.50;;;;;;;20.92;65.95;99504.84;5073403;28;20032;-75
2023/06/29 00:49:41;;;;;;;7.72;6.90;;;;;;;20.54;66.16;99443.06;5073366;28;20024;-75
2023/06/29 00:52:07;;;;;;;7.95;7.15;;;;;;;20.66;66.48;99469.78;5071899;28;20024;-75
2023/06/29 00:54:32;;;;;;;8.20;6.90;;;;;;;20.21;66.36;99406.31;5073260;28;20463;-75
2023/06/29 00:56:58;;;;;;;8.35;7.47;;;;;;;20.84;66.00;99512.50;5073174;28;20411;-75
2023/06/29 00:59:24;;;;;;;13.32;8.63;;;;;;;20.49;66.40;99492.06;5073233;28;20074;-75
2023/06/29 01:01:51;;;;;;;10.05;8.27;;;;;;;20.32;66.44;99456.38;5073260;28;20024;-75
2023/06/29 01:04:25;;;;;;;8.82;7.85;;;;;;;20.33;66.95;99467.91;5073126;28;20032;-75
2023/06/29 01:07:03;;;;;;;8.18;7.38;;;;;;;20.52;66.71;99486.22;5073149;28;20058;-75
2023/06/29 01:09:30;;;;;;;8.50;7.65;;;;;;;20.25;66.72;99440.44;5071631;28;20031;-75
2023/06/29 01:11:57;;;;;;;9.57;7.32;;;;;;;20.48;66.58;99473.53;5072917;28;21355;-75
2023/06/29 01:14:25;;;;;;;9.07;8.25;;;;;;;20.58;66.54;99469.16;5070227;28;20025;-75
2023/06/29 01:16:51;;;;;;;8.15;7.35;;;;;;;20.26;66.50;99425.97;5072612;28;20485;-76
2023/06/29 01:19:21;;;;;;;8.20;7.22;;;;;;;20.73;66.29;99475.78;5071335;28;20028;-76
2023/06/29 01:21:56;;;;;;;8.40;7.60;;;;;;;20.71;66.56;99472.53;5072705;28;20052;-75
2023/06/29 01:24:25;;;;;;;8.80;7.90;;;;;;;20.28;67.00;99420.38;5072681;28;20029;-76
2023/06/29 01:26:51;;;;;;;8.43;7.22;;;;;;;20.75;66.40;99482.53;5072801;28;20031;-75
2023/06/29 01:29:24;;;;;;;9.27;7.28;;;;;;;20.79;66.30;99486.34;5072509;28;20036;-75
2023/06/29 01:31:53;;;;;;;8.63;7.40;;;;;;;20.58;66.13;99442.31;5072411;28;20040;-75
2023/06/29 01:34:19;;;;;;;9.30;7.20;;;;;;;20.85;66.24;99488.09;5070884;28;20036;-76
2023/06/29 01:36:49;;;;;;;8.18;7.40;;;;;;;20.41;66.11;99414.72;5072234;28;20027;-74
2023/06/29 01:39:23;;;;;;;8.48;7.57;;;;;;;20.50;65.97;99445.41;5072204;28;20024;-75
2023/06/29 01:41:49;;;;;;;7.75;6.60;;;;;;;20.26;66.24;99409.88;5072178;28;20020;-75
2023/06/29 01:44:16;;;;;;;8.88;6.85;;;;;;;20.41;65.50;99436.16;5072037;28;20529;-75
2023/06/29 01:46:43;;;;;;;7.47;6.78;;;;;;;20.75;65.33;99490.59;5070837;28;20024;-76
2023/06/29 01:49:09;;;;;;;7.80;6.75;;;;;;;20.74;65.17;99488.97;5072235;28;20028;-74
2023/06/29 01:51:35;;;;;;;7.07;6.47;;;;;;;20.53;65.29;99457.53;5071883;28;20090;-75
2023/06/29 01:54:01;;;;;;;6.95;6.25;;;;;;;20.30;65.35;99439.72;5071902;28;20520;-76
2023/06/29 01:56:27;;;;;;;7.05;6.20;;;;;;;20.26;64.96;99425.97;5072021;28;20081;-76
2023/06/29 01:58:52;;;;;;;8.95;6.03;;;;;;;20.40;64.95;99441.75;5071994;28;20052;-74
2023/06/29 02:01:17;;;;;;;8.63;5.22;;;;;;;20.46;64.80;99470.28;5070720;28;20028;-75
2023/06/29 02:03:43;;;;;;;7.03;5.53;;;;;;;20.16;64.71;99435.72;5071970;28;20025;-74
2023/06/29 02:06:08;;;;;;;8.95;5.10;;;;;;;20.57;64.83;99506.94;5071833;28;20028;-75
2023/06/29 02:08:34;;;;;;;8.13;6.03;;;;;;;20.25;64.60;99461.88;5070545;28;20035;-74
2023/06/29 02:11:00;;;;;;;7.45;5.93;;;;;;;20.27;64.64;99456.28;5071799;28;20056;-76
2023/06/29 02:13:25;;;;;;;7.88;6.63;;;;;;;20.15;64.84;99440.28;5070306;28;20056;-75
2023/06/29 02:15:50;;;;;;;9.73;6.35;;;;;;;20.11;64.60;99439.13;5071753;28;20513;-74
2023/06/29 02:18:16;;;;;;;8.10;5.93;;;;;;;20.18;64.62;99452.38;5071589;28;20037;-76
2023/06/29 02:20:41;;;;;;;10.80;6.35;;;;;;;20.29;64.50;99483.66;5071782;28;20105;-75
2023/06/29 02:23:06;;;;;;;7.00;5.43;;;;;;;20.27;64.62;99497.31;5071466;28;20028;-76
2023/06/29 02:25:32;;;;;;;7.40;4.95;;;;;;;19.85;64.59;99445.06;5071004;28;20558;-74
2023/06/29 02:27:57;;;;;;;6.82;5.22;;;;;;;20.11;64.69;99486.56;5070166;28;20039;-75
2023/06/29 02:30:23;;;;;;;6.15;4.93;;;;;;;19.77;64.63;99459.66;5071435;28;20115;-74
2023/06/29 02:32:48;;;;;;;8.73;5.32;;;;;;;19.58;65.13;99448.34;5071410;28;20028;-75
2023/06/29 02:35:13;;;;;;;7.53;4.75;;;;;;;19.88;65.87;99520.44;5071446;28;20440;-75
2023/06/29 02:37:39;;;;;;;6.53;5.00;;;;;;;19.80;66.06;99510.09;5071568;28;20052;-74
2023/06/29 02:40:05;;;;;;;5.10;4.43;;;;;;;19.63;65.96;99498.50;5071317;28;20486;-74
2023/06/29 02:42:30;;;;;;;6.95;4.60;;;;;;;19.43;65.88;99477.47;5071381;28;20020;-75
2023/06/29 02:44:56;;;;;;;6.65;4.75;;;;;;;19.55;66.18;99521.13;5071181;28;20086;-74
2023/06/29 02:47:21;;;;;;;6.57;4.68;;;;;;;19.18;66.02;99469.69;5071200;28;20104;-74
2023/06/29 02:49:46;;;;;;;6.15;4.97;;;;;;;18.75;66.00;99410.44;5071149;28;20032;-75
2023/06/29 02:52:12;;;;;;;6.82;4.15;;;;;;;19.34;66.32;99516.38;5069903;28;20029;-75
2023/06/29 02:54:37;;;;;;;4.97;4.50;;;;;;;19.07;66.62;99483.09;5071290;28;20028;-74
2023/06/29 02:57:03;;;;;;;5.25;3.95;;;;;;;18.80;65.91;99462.19;5071206;28;20032;-75
2023/06/29 02:59:28;;;;;;;6.30;4.70;;;;;;;19.25;66.17;99528.47;5071243;28;20569;-75
2023/06/29 03:01:53;;;;;;;5.25;4.22;;;;;;;18.82;66.46;99473.47;5071266;28;20537;-75
2023/06/29 03:04:19;;;;;;;10.57;5.18;;;;;;;18.97;66.16;99495.22;5070886;28;20512;-75
2023/06/29 03:06:44;;;;;;;5.07;4.53;;;;;;;18.71;66.19;99444.84;5069745;28;20031;-75
2023/06/29 03:09:10;;;;;;;5.50;4.63;;;;;;;19.23;66.18;99541.25;5071141;28;20111;-75
2023/06/29 03:11:35;;;;;;;4.93;4.05;;;;;;;18.72;66.25;99455.31;5069787;28;20021;-75
2023/06/29 03:14:00;;;;;;;9.90;4.32;;;;;;;19.24;66.01;99540.22;5070781;28;20405;-75
2023/06/29 03:16:26;;;;;;;4.03;3.65;;;;;;;18.82;66.08;99478.81;5070932;28;20099;-75
2023/06/29 03:18:51;;;;;;;4.97;4.50;;;;;;;19.19;66.30;99534.75;5071157;28;20051;-74
2023/06/29 03:21:19;;;;;;;6.68;4.68;;;;;;;18.98;66.24;99488.00;5071141;28;20107;-75
2023/06/29 03:23:45;;;;;;;5.82;3.88;;;;;;;19.09;66.19;99497.06;5070949;28;20047;-74
2023/06/29 03:26:10;;;;;;;4.55;4.07;;;;;;;19.15;66.14;99512.19;5069570;28;20118;-76
2023/06/29 03:28:36;;;;;;;5.22;4.53;;;;;;;19.25;65.96;99513.22;5070988;28;20037;-75
2023/06/29 03:31:01;;;;;;;7.72;5.15;;;;;;;18.87;66.09;99451.34;5070929;28;20029;-75
2023/06/29 03:33:27;;;;;;;7.55;5.00;;;;;;;19.21;65.90;99508.56;5070824;28;20460;-75
2023/06/29 03:35:52;;;;;;;5.57;4.18;;;;;;;19.09;66.03;99489.03;5070775;28;20103;-76
2023/06/29 03:38:18;;;;;;;8.20;4.30;;;;;;;19.06;65.90;99490.31;5072879;28;20466;-75
2023/06/29 03:40:43;;;;;;;4.72;4.22;;;;;;;19.30;65.91;99520.53;5074469;28;20032;-76
2023/06/29 03:43:08;;;;;;;5.03;4.25;;;;;;;19.34;65.98;99519.03;5074507;28;20025;-75
2023/06/29 03:45:34;;;;;;;4.95;3.97;;;;;;;19.02;65.64;99481.94;5074507;28;20028;-75
2023/06/29 03:47:59;;;;;;;5.82;4.75;;;;;;;19.06;66.02;99484.97;5074607;28;20493;-75
2023/06/29 03:50:25;;;;;;;5.68;4.10;;;;;;;19.35;66.13;99542.09;5073313;28;20033;-75
2023/06/29 03:52:50;;;;;;;4.57;3.90;;;;;;;19.35;65.94;99537.56;5074319;28;20033;-75
2023/06/29 03:55:17;;;;;;;4.90;4.13;;;;;;;19.21;65.84;99517.41;5074282;28;20108;-76
2023/06/29 03:57:42;;;;;;;4.95;4.00;;;;;;;19.14;65.42;99500.66;5074201;28;20056;-75
2023/06/29 04:00:08;;;;;;;7.43;3.88;;;;;;;19.40;64.95;99542.19;5074443;28;20024;-75
2023/06/29 04:02:33;;;;;;;5.53;4.10;;;;;;;19.38;64.96;99533.59;5074659;28;20021;-75
2023/06/29 04:04:59;;;;;;;5.28;4.70;;;;;;;19.31;65.14;99541.72;5074262;28;20021;-76
2023/06/29 04:07:25;;;;;;;8.07;5.00;;;;;;;18.90;65.22;99478.47;5074436;28;20056;-75
2023/06/29 04:09:51;;;;;;;4.93;4.32;;;;;;;19.01;64.99;99496.38;5074367;28;20028;-74
2023/06/29 04:12:16;;;;;;;4.97;4.30;;;;;;;19.02;64.94;99498.00;5074169;28;20032;-75
2023/06/29 04:14:41;;;;;;;6.28;4.55;;;;;;;18.90;64.96;99480.31;5074042;28;20063;-76
2023/06/29 04:17:07;;;;;;;6.68;4.35;;;;;;;19.23;65.11;99517.16;5074007;28;20107;-75
2023/06/29 04:19:33;;;;;;;4.38;3.40;;;;;;;19.38;65.05;99557.69;5073847;28;20032;-74
2023/06/29 04:21:58;;;;;;;5.97;4.07;;;;;;;19.22;64.76;99523.56;5073853;28;20060;-75
2023/06/29 04:24:23;;;;;;;4.53;3.50;;;;;;;18.51;64.82;99413.06;5073554;28;20516;-76
2023/06/29 04:26:49;;;;;;;5.85;4.57;;;;;;;19.14;64.90;99513.22;5073673;28;20020;-76
2023/06/29 04:29:14;;;;;;;4.45;3.70;;;;;;;19.43;64.56;99559.66;5073689;28;20020;-76
2023/06/29 04:31:40;;;;;;;4.38;3.88;;;;;;;19.13;64.24;99498.22;5074033;28;20060;-73
2023/06/29 04:34:05;;;;;;;5.07;3.75;;;;;;;19.42;64.16;99563.38;5073681;28;20025;-74
2023/06/29 04:36:31;;;;;;;4.47;4.00;;;;;;;18.70;64.17;99467.31;5073558;28;20467;-75
2023/06/29 04:38:56;;;;;;;5.22;3.75;;;;;;;19.28;64.08;99568.97;5073547;28;20036;-73
2023/06/29 04:41:30;;;;;;;4.20;3.72;;;;;;;18.94;63.95;99514.41;5073386;28;20074;-75
2023/06/29 04:44:00;;;;;;;4.85;3.60;;;;;;;18.78;63.60;99490.22;5073344;28;20492;-74
2023/06/29 04:46:28;;;;;;;4.90;3.22;;;;;;;19.30;63.53;99569.53;5073237;28;20093;-75
2023/06/29 04:48:53;;;;;;;4.53;3.53;;;;;;;19.27;63.52;99563.84;5073301;28;20032;-74
2023/06/29 04:51:19;;;;;;;5.25;3.33;;;;;;;19.19;63.50;99556.16;5073251;28;20028;-74
2023/06/29 04:53:45;;;;;;;4.13;3.78;;;;;;;19.03;63.35;99526.38;5072046;28;20082;-74
2023/06/29 04:56:10;;;;;;;3.67;3.28;;;;;;;19.30;63.11;99568.72;5072862;28;20048;-74
2023/06/29 04:58:35;;;;;;;4.82;3.53;;;;;;;19.02;63.44;99523.94;5073007;28;20044;-74
2023/06/29 05:01:02;;;;;;;4.13;3.70;;;;;;;19.46;63.09;99583.28;5073168;28;20498;-74
2023/06/29 05:03:27;;;;;;;5.75;3.85;;;;;;;19.52;63.08;99585.88;5073228;28;20024;-75
2023/06/29 05:05:52;;;;;;;5.18;3.83;;;;;;;19.14;62.97;99518.56;5072642;28;20027;-74
2023/06/29 05:08:18;;;;;;;6.18;3.25;;;;;;;19.55;62.69;99587.25;5073058;28;20097;-74
2023/06/29 05:10:44;;;;;;;5.15;3.60;;;;;;;19.58;62.27;99597.50;5073015;28;20100;-75
2023/06/29 05:13:10;;;;;;;6.85;3.75;;;;;;;19.65;62.60;99582.13;5072837;28;20490;-75
2023/06/29 05:15:35;;;;;;;3.97;3.58;;;;;;;19.55;62.58;99553.25;5072712;28;20028;-73
2023/06/29 05:18:00;;;;;;;4.43;4.05;;;;;;;19.39;62.19;99529.88;5072773;28;20020;-76
2023/06/29 05:20:26;;;;;;;5.15;3.95;;;;;;;19.76;61.62;99567.88;5072824;28;20032;-73
2023/06/29 05:22:51;;;;;;;5.15;3.70;;;;;;;19.60;61.53;99545.34;5072226;28;20016;-75
2023/06/29 05:25:17;;;;;;;4.55;3.90;;;;;;;19.22;61.63;99496.81;5072501;28;20036;-74
2023/06/29 05:27:42;;;;;;;6.10;3.85;;;;;;;19.71;61.35;99569.66;5072423;28;20032;-74
2023/06/29 05:30:08;;;;;;;4.43;3.75;;;;;;;19.89;61.50;99590.91;5072206;28;20048;-75
2023/06/29 05:32:35;;;;;;;5.13;4.07;;;;;;;19.74;61.30;99564.63;5072702;28;20568;-73
2023/06/29 05:35:00;;;;;;;5.07;3.35;;;;;;;20.06;61.47;99601.69;5092437;28;20123;-76
2023/06/29 05:37:27;;;;;;;5.47;3.80;;;;;;;19.68;60.72;99528.88;5092587;28;20057;-75
2023/06/29 05:39:54;;;;;;;4.55;3.40;;;;;;;19.93;60.50;99571.44;5092337;28;20032;-76
2023/06/29 05:42:19;;;;;;;5.25;3.30;;;;;;;19.53;60.26;99495.63;5091149;28;20030;-77
2023/06/29 05:44:45;;;;;;;6.60;3.83;;;;;;;19.84;60.37;99567.50;5081338;28;20406;-76
2023/06/29 05:47:10;;;;;;;4.03;3.60;;;;;;;20.05;60.27;99594.72;5072101;28;20021;-75
2023/06/29 05:49:36;;;;;;;5.15;4.65;;;;;;;19.64;60.25;99537.63;5076695;28;20020;-77
2023/06/29 05:52:01;;;;;;;5.55;4.07;;;;;;;20.07;60.24;99600.69;5074488;28;20121;-74
2023/06/29 05:54:26;;;;;;;4.95;3.75;;;;;;;20.08;60.15;99596.94;5088734;28;20039;-74
2023/06/29 05:56:52;;;;;;;6.93;5.70;;;;;;;20.23;60.35;99607.97;5082631;28;20107;-73
2023/06/29 05:59:17;;;;;;;4.70;4.30;;;;;;;19.98;59.95;99550.09;5071452;28;20121;-76
2023/06/29 06:01:42;;;;;;;6.13;5.32;;;;;;;20.15;60.03;99568.13;5071849;28;20498;-73
2023/06/29 06:04:08;;;;;;;6.32;3.90;;;;;;;20.39;59.70;99603.69;5071798;28;20063;-74
2023/06/29 06:06:34;;;;;;;6.30;4.53;;;;;;;20.08;59.51;99554.88;5071436;28;20489;-73
2023/06/29 06:08:59;;;;;;;7.95;4.45;;;;;;;20.41;59.78;99580.16;5073335;28;20051;-74
2023/06/29 06:11:24;;;;;;;4.43;3.92;;;;;;;20.00;59.90;99512.34;5073486;28;20028;-74
2023/06/29 06:13:50;;;;;;;4.32;3.92;;;;;;;19.79;59.77;99487.03;5071503;28;20032;-75
2023/06/29 06:16:15;;;;;;;6.20;4.68;;;;;;;19.96;59.97;99556.75;5071667;28;20420;-76
2023/06/29 06:18:41;;;;;;;7.03;5.03;;;;;;;20.21;59.56;99583.25;5071407;28;20063;-76
2023/06/29 06:21:06;;;;;;;6.03;4.32;;;;;;;19.94;59.51;99548.94;5067544;28;20418;-76
2023/06/29 06:23:32;;;;;;;5.35;3.83;;;;;;;20.17;59.60;99563.34;5069382;28;20028;-72
2023/06/29 06:25:57;;;;;;;6.15;4.88;;;;;;;20.11;59.71;99540.19;5072606;28;20021;-73
2023/06/29 06:28:24;;;;;;;6.25;4.63;;;;;;;20.00;59.94;99529.25;5052542;28;20452;-75
2023/06/29 06:30:49;;;;;;;8.77;7.95;;;;;;;20.54;59.75;99602.13;5051135;28;20036;-74
2023/06/29 06:33:16;;;;;;;7.07;4.95;;;;;;;20.52;59.69;99601.56;5050962;28;20600;-75
2023/06/29 06:35:41;;;;;;;8.32;6.05;;;;;;;20.62;59.72;99620.50;5049907;28;20029;-75
2023/06/29 06:38:07;;;;;;;9.18;5.03;;;;;;;20.37;59.32;99563.72;5051321;28;20033;-75
2023/06/29 06:40:32;;;;;;;6.93;5.13;;;;;;;20.06;59.19;99516.75;5051439;28;20574;-76
2023/06/29 06:42:57;;;;;;;7.00;5.25;;;;;;;20.33;58.84;99548.34;5051214;28;20024;-75
2023/06/29 06:45:23;;;;;;;7.50;4.78;;;;;;;20.17;58.91;99510.53;5051151;28;20086;-74
2023/06/29 06:47:48;;;;;;;6.35;4.50;;;;;;;20.56;58.25;99573.19;5051226;28;20032;-75
2023/06/29 06:50:14;;;;;;;4.80;4.07;;;;;;;20.37;57.95;99546.81;5051050;28;20029;-74
2023/06/29 06:52:39;;;;;;;9.63;8.57;;;;;;;20.66;58.42;99596.69;5049559;28;20406;-74
2023/06/29 06:55:05;;;;;;;10.80;7.28;;;;;;;20.60;58.44;99568.16;5050990;28;20036;-74
2023/06/29 06:57:31;;;;;;;5.97;4.03;;;;;;;20.70;58.21;99586.28;5049641;28;20087;-75
2023/06/29 06:59:56;;;;;;;4.63;4.10;;;;;;;20.77;58.07;99578.91;5049807;28;20029;-76
2023/06/29 07:02:21;;;;;;;5.07;4.57;;;;;;;20.92;57.36;99606.81;5050985;28;20059;-75
2023/06/29 07:04:47;;;;;;;6.93;5.03;;;;;;;20.86;57.30;99602.44;5050904;28;20025;-75
2023/06/29 07:07:12;;;;;;;5.60;4.80;;;;;;;20.39;57.20;99524.09;5050727;28;20486;-75
2023/06/29 07:09:38;;;;;;;5.15;4.68;;;;;;;20.78;57.26;99553.69;5050952;28;20053;-76
2023/06/29 07:12:04;;;;;;;5.68;4.10;;;;;;;21.12;57.38;99597.47;5054160;28;20031;-75
2023/06/29 07:14:31;;;;;;;4.65;3.53;;;;;;;20.63;57.16;99514.00;5055135;28;20469;-75
2023/06/29 07:16:57;;;;;;;7.15;4.65;;;;;;;21.06;57.23;99571.59;5055008;28;20460;-76
2023/06/29 07:19:23;;;;;;;6.22;4.18;;;;;;;21.33;57.56;99593.22;5055009;28;20024;-76
2023/06/29 07:21:48;;;;;;;6.65;4.75;;;;;;;21.11;57.05;99532.22;5055138;28;20017;-75
2023/06/29 07:24:13;;;;;;;6.85;3.72;;;;;;;21.55;56.40;99584.19;5054955;28;20557;-74
2023/06/29 07:26:39;;;;;;;6.22;3.78;;;;;;;21.41;55.84;99563.25;5054777;28;20025;-74
2023/06/29 07:29:05;;;;;;;7.00;3.97;;;;;;;21.53;55.77;99586.28;5054709;28;20033;-74
2023/06/29 07:31:31;;;;;;;4.72;4.05;;;;;;;21.65;55.82;99578.13;5054893;28;20024;-73
2023/06/29 07:33:56;;;;;;;7.03;4.63;;;;;;;21.74;55.70;99575.81;5054130;28;20551;-73
2023/06/29 07:36:23;;;;;;;5.55;4.82;;;;;;;21.58;54.55;99547.94;5055396;28;20535;-75
2023/06/29 07:38:49;;;;;;;4.45;3.90;;;;;;;21.96;55.15;99591.94;5053255;28;20070;-75
2023/06/29 07:41:16;;;;;;;5.88;5.28;;;;;;;21.89;54.36;99565.25;5054334;28;20029;-75
2023/06/29 07:43:47;;;;;;;7.35;6.00;;;;;;;22.12;53.85;99597.25;5052937;28;20479;-75
2023/06/29 07:46:12;;;;;;;5.53;4.87;;;;;;;22.05;53.64;99593.13;5053263;28;20025;-74
2023/06/29 07:48:37;;;;;;;4.63;4.22;;;;;;;22.09;53.44;99586.19;5052906;28;20109;-75
2023/06/29 07:51:06;;;;;;;5.65;4.30;;;;;;;21.67;53.26;99511.50;5054202;28;20506;-72
2023/06/29 07:53:31;;;;;;;7.55;5.13;;;;;;;22.29;53.64;99591.78;5054262;28;20104;-72
2023/06/29 07:55:58;;;;;;;4.60;4.20;;;;;;;21.99;53.71;99541.16;5054252;28;20106;-75
2023/06/29 07:58:23;;;;;;;5.45;4.93;;;;;;;21.99;54.08;99518.84;5053809;28;20088;-74
2023/06/29 08:00:48;;;;;;;5.43;4.93;;;;;;;22.27;53.46;99542.81;5053958;28;20056;-75
2023/06/29 08:03:14;;;;;;;4.32;3.90;;;;;;;22.13;53.45;99522.78;5053945;28;20013;-74
2023/06/29 08:05:39;;;;;;;5.25;4.50;;;;;;;22.55;53.30;99559.78;5053703;28;20036;-73
2023/06/29 08:08:05;;;;;;;6.55;4.18;;;;;;;22.86;52.40;99595.88;5054242;28;20028;-74
2023/06/29 08:10:30;;;;;;;4.70;4.25;;;;;;;22.80;51.75;99600.41;5052737;28;20025;-75
2023/06/29 08:12:55;;;;;;;4.93;3.83;;;;;;;22.85;51.32;99602.31;5052688;28;20028;-74
2023/06/29 08:15:21;;;;;;;4.50;3.63;;;;;;;22.36;50.36;99546.69;5053795;28;20025;-75
2023/06/29 08:17:47;;;;;;;3.97;3.40;;;;;;;22.83;49.68;99595.31;5053658;28;20029;-74
2023/06/29 08:20:12;;;;;;;4.20;3.65;;;;;;;22.49;49.83;99532.81;5053722;28;20060;-73
2023/06/29 08:22:38;;;;;;;6.15;3.85;;;;;;;22.85;49.53;99572.69;5052951;28;20024;-74
2023/06/29 08:25:04;;;;;;;4.07;3.67;;;;;;;22.82;48.85;99563.25;5052148;28;20029;-76
2023/06/29 08:27:30;;;;;;;8.07;6.57;;;;;;;23.03;48.63;99602.72;5052332;28;20017;-73
2023/06/29 08:29:55;;;;;;;4.78;3.47;;;;;;;22.65;48.12;99514.09;5052335;28;20513;-76
2023/06/29 08:32:21;;;;;;;5.20;3.63;;;;;;;22.93;47.86;99556.06;5053530;28;20115;-74
2023/06/29 08:34:47;;;;;;;5.40;4.55;;;;;;;23.30;48.00;99591.09;5053827;28;20033;-74
2023/06/29 08:37:12;;;;;;;7.30;5.07;;;;;;;23.34;47.53;99584.91;5053543;28;20458;-76
2023/06/29 08:39:38;;;;;;;4.90;4.32;;;;;;;23.14;47.33;99520.97;5053597;28;20263;-74
2023/06/29 08:42:03;;;;;;;5.28;4.22;;;;;;;23.69;47.47;99591.59;5053181;28;20055;-73
2023/06/29 08:44:29;;;;;;;4.60;3.67;;;;;;;23.21;46.57;99487.59;5053244;28;20486;-73
2023/06/29 08:46:59;;;;;;;5.60;3.38;;;;;;;23.20;46.50;99477.88;5053191;28;20027;-75
2023/06/29 08:49:25;;;;;;;5.05;4.22;;;;;;;23.76;46.11;99563.31;5053286;28;20060;-74
2023/06/29 08:51:53;;;;;;;6.18;5.55;;;;;;;23.62;45.65;99519.06;5052845;28;20467;-75
2023/06/29 08:54:19;;;;;;;6.78;5.68;;;;;;;23.99;45.95;99550.47;5052989;28;20048;-75
2023/06/29 08:56:45;;;;;;;7.43;5.22;;;;;;;23.98;45.63;99541.59;5061880;28;20052;-76
2023/06/29 08:59:10;;;;;;;4.47;3.70;;;;;;;23.71;44.55;99495.91;5072547;28;20581;-75
2023/06/29 09:01:38;;;;;;;5.25;4.30;;;;;;;24.22;44.67;99568.06;5075376;28;20107;-77
2023/06/29 09:04:03;;;;;;;5.47;4.15;;;;;;;23.78;44.80;99522.63;5081988;28;20031;-76
2023/06/29 09:06:29;;;;;;;3.70;3.40;;;;;;;24.02;44.75;99548.06;5076839;28;20035;-73
2023/06/29 09:08:54;;;;;;;4.40;3.00;;;;;;;24.40;44.60;99568.41;5071462;28;20039;-75
2023/06/29 09:11:21;;;;;;;4.28;3.47;;;;;;;24.09;44.18;99474.97;5073985;28;20028;-74
2023/06/29 09:13:46;;;;;;;6.88;4.60;;;;;;;24.46;44.13;99500.94;5073817;28;20612;-76
2023/06/29 09:16:17;;;;;;;4.65;3.38;;;;;;;24.62;43.84;99522.28;5075881;28;20031;-74
2023/06/29 09:18:48;;;;;;;3.90;3.40;;;;;;;24.73;43.43;99563.59;5087935;28;20493;-76
2023/06/29 09:21:16;;;;;;;4.55;3.40;;;;;;;24.49;43.39;99508.50;5073765;28;20409;-75
2023/06/29 09:23:46;;;;;;;5.97;4.50;;;;;;;24.95;42.83;99552.50;5075931;28;20025;-75
2023/06/29 09:26:12;;;;;;;4.70;3.80;;;;;;;24.74;42.48;99513.09;5077068;28;20031;-76
2023/06/29 09:28:44;;;;;;;5.10;3.60;;;;;;;24.92;41.80;99526.03;5080151;28;20037;-76
2023/06/29 09:31:10;;;;;;;5.03;3.30;;;;;;;25.32;41.84;99560.31;5077756;28;20059;-76
2023/06/29 09:33:35;;;;;;;3.97;3.53;;;;;;;25.25;41.93;99517.34;5073405;28;20572;-76
2023/06/29 09:36:06;;;;;;;6.55;3.95;;;;;;;25.82;41.33;99561.25;5071751;28;20024;-74
2023/06/29 09:38:32;;;;;;;5.40;4.90;;;;;;;26.00;40.94;99559.81;5070669;28;20032;-76
2023/06/29 09:40:59;;;;;;;3.95;3.50;;;;;;;26.19;40.61;99544.56;5074007;28;20036;-76
2023/06/29 09:43:27;;;;;;;3.38;3.03;;;;;;;26.30;39.43;99524.47;5078246;28;20025;-74
2023/06/29 09:46:13;;;;;;;5.68;4.50;;;;;;;26.65;39.36;99553.19;5072590;28;20485;-76
2023/06/29 09:48:46;;;;;;;3.60;3.30;;;;;;;26.83;39.14;99549.81;5070282;28;20048;-75
2023/06/29 09:51:21;;;;;;;4.40;3.38;;;;;;;26.67;38.86;99485.19;5071748;28;20082;-76
2023/06/29 09:53:49;;;;;;;3.42;3.13;;;;;;;27.17;38.49;99557.91;5068541;28;20097;-75
2023/06/29 09:56:16;;;;;;;5.32;4.50;;;;;;;27.41;38.13;99551.69;5075080;28;20416;-76
2023/06/29 09:59:00;;;;;;;4.30;3.58;;;;;;;27.31;36.38;99552.63;5069930;28;20051;-76
2023/06/29 10:01:28;;;;;;;3.80;3.40;;;;;;;27.41;37.14;99546.28;5051883;28;20049;-76
2023/06/29 10:03:54;;;;;;;4.00;3.60;;;;;;;27.50;36.88;99529.09;5061914;28;20028;-75
2023/06/29 10:06:30;;;;;;;3.63;3.03;;;;;;;27.38;36.47;99471.72;5070912;28;20035;-74
2023/06/29 10:08:58;;;;;;;6.40;4.90;;;;;;;27.80;36.30;99517.09;5066514;28;20494;-75
2023/06/29 10:11:28;;;;;;;7.50;5.95;;;;;;;27.62;36.38;99496.16;5069911;28;20464;-75
2023/06/29 10:13:58;;;;;;;5.40;3.25;;;;;;;27.65;36.11;99481.22;5068471;28;20020;-76
2023/06/29 10:16:24;;;;;;;3.38;3.08;;;;;;;28.16;35.76;99538.28;5071443;28;20032;-75
2023/06/29 10:18:56;;;;;;;7.03;5.05;;;;;;;27.85;35.56;99489.06;5069682;28;20090;-76
2023/06/29 10:21:22;;;;;;;5.18;4.32;;;;;;;28.37;35.88;99528.78;5069016;28;20082;-75
2023/06/29 10:23:49;;;;;;;4.20;2.72;;;;;;;28.61;35.08;99533.31;5069978;28;20024;-76
2023/06/29 10:26:16;;;;;;;3.22;2.97;;;;;;;28.75;34.63;99531.44;5071434;28;20046;-75
2023/06/29 10:28:42;;;;;;;4.03;3.67;;;;;;;28.93;34.74;99513.47;5071265;28;20025;-77
2023/06/29 10:31:07;;;;;;;3.95;3.63;;;;;;;28.98;34.03;99497.88;5070772;28;20107;-76
2023/06/29 10:33:45;;;;;;;3.00;2.70;;;;;;;29.14;33.64;99475.88;5074862;28;20028;-73
2023/06/29 10:36:13;;;;;;;4.55;2.88;;;;;;;29.65;33.27;99525.44;5072806;28;20016;-76
2023/06/29 10:38:38;;;;;;;4.13;2.70;;;;;;;29.45;33.30;99467.91;5070845;28;20500;-75
2023/06/29 10:41:06;;;;;;;3.55;3.08;;;;;;;29.60;33.00;99479.28;5071189;28;20059;-76
2023/06/29 10:43:55;;;;;;;3.08;2.72;;;;;;;29.95;31.57;99509.56;5070609;28;20012;-74
2023/06/29 10:46:49;;;;;;;2.65;2.45;;;;;;;29.97;32.59;99507.34;5069451;28;20099;-75
2023/06/29 10:49:25;;;;;;;2.97;2.67;;;;;;;30.09;31.04;99501.38;5079337;28;20497;-76
2023/06/29 10:52:00;;;;;;;3.15;2.50;;;;;;;29.88;31.90;99460.19;5065948;28;20023;-76
2023/06/29 10:54:26;;;;;;;3.75;2.30;;;;;;;29.80;31.91;99437.22;5067295;28;20024;-75
2023/06/29 10:57:00;;;;;;;3.22;2.80;;;;;;;30.42;31.83;99501.94;5069136;28;20024;-76
2023/06/29 10:59:29;;;;;;;4.47;2.50;;;;;;;30.33;31.67;99466.47;5071196;28;20119;-74
2023/06/29 11:01:55;;;;;;;3.20;2.90;;;;;;;30.74;30.98;99507.19;5072260;28;20032;-76
2023/06/29 11:04:24;;;;;;;4.90;2.55;;;;;;;30.36;30.69;99441.34;5072234;28;20117;-74
2023/06/29 11:06:50;;;;;;;3.15;2.33;;;;;;;30.92;30.23;99511.59;5069652;28;20066;-76
2023/06/29 11:09:16;;;;;;;4.32;2.35;;;;;;;31.00;29.91;99504.59;5070009;28;20060;-75
2023/06/29 11:11:47;;;;;;;2.80;2.60;;;;;;;31.00;29.84;99501.84;5073529;28;20039;-75
2023/06/29 11:14:13;;;;;;;3.95;2.55;;;;;;;31.19;29.83;99509.81;5072382;28;20032;-76
2023/06/29 11:17:01;;;;;;;2.60;2.40;;;;;;;31.35;29.28;99502.03;5068989;28;20032;-75
2023/06/29 11:19:27;;;;;;;2.30;2.10;;;;;;;30.98;29.25;99425.81;5028361;28;20033;-75
2023/06/29 11:21:54;;;;;;;2.72;2.25;;;;;;;30.75;28.74;99418.84;5011399;28;20042;-76
2023/06/29 11:24:21;;;;;;;2.85;2.65;;;;;;;30.85;28.79;99418.56;5007375;28;20700;-76
2023/06/29 11:26:47;;;;;;;4.07;2.55;;;;;;;31.21;28.97;99461.22;5033484;28;20035;-74
2023/06/29 11:29:12;;;;;;;2.83;2.30;;;;;;;31.46;29.21;99455.03;5027606;28;20041;-76
2023/06/29 11:31:38;;;;;;;2.67;2.00;;;;;;;31.56;28.60;99457.47;5028874;28;20044;-73